createdAt,value
2019-06-19T00:00:22.390Z,19.21
2019-06-19T00:01:22.258Z,19.14
2019-06-19T00:02:19.877Z,19.09
2019-06-19T00:03:22.221Z,19.12
2019-06-19T00:04:19.848Z,19.04
2019-06-19T00:05:19.834Z,19.09
2019-06-19T00:06:19.820Z,19.06
2019-06-19T00:07:19.809Z,19.09
2019-06-19T00:08:19.793Z,19.04
2019-06-19T00:09:19.777Z,18.99
2019-06-19T00:10:22.401Z,19.02
2019-06-19T00:11:19.732Z,18.98
2019-06-19T00:12:19.714Z,18.99
2019-06-19T00:13:19.700Z,18.90
2019-06-19T00:14:19.685Z,18.93
2019-06-19T00:15:22.243Z,18.93
2019-06-19T00:16:19.668Z,18.78
2019-06-19T00:17:22.131Z,18.73
2019-06-19T00:18:19.631Z,18.68
2019-06-19T00:19:19.616Z,18.78
2019-06-19T00:20:22.240Z,18.84
2019-06-19T00:21:19.583Z,18.75
2019-06-19T00:22:19.566Z,18.75
2019-06-19T00:23:19.553Z,18.68
2019-06-19T00:24:19.537Z,18.65
2019-06-19T00:25:19.525Z,18.60
2019-06-19T00:26:19.509Z,18.58
2019-06-19T00:27:19.495Z,18.53
2019-06-19T00:28:25.531Z,18.53
2019-06-19T00:29:22.191Z,18.53
2019-06-19T00:30:21.130Z,18.56
2019-06-19T00:31:21.942Z,18.53
2019-06-19T00:32:20.646Z,18.58
2019-06-19T00:33:21.117Z,18.63
2019-06-19T00:34:21.366Z,18.51
2019-06-19T00:35:21.544Z,18.51
2019-06-19T00:36:20.924Z,18.50
2019-06-19T00:37:21.028Z,18.44
2019-06-19T00:38:21.165Z,18.44
2019-06-19T00:39:21.478Z,18.48
2019-06-19T00:40:20.806Z,18.47
2019-06-19T00:41:21.516Z,18.41
2019-06-19T00:42:20.784Z,18.40
2019-06-19T00:43:21.233Z,18.38
2019-06-19T00:44:20.956Z,18.38
2019-06-19T00:45:20.721Z,18.38
2019-06-19T00:46:21.497Z,18.40
2019-06-19T00:47:21.094Z,18.38
2019-06-19T00:48:20.817Z,18.41
2019-06-19T00:49:20.938Z,18.38
2019-06-19T00:50:21.538Z,18.41
2019-06-19T00:51:20.974Z,18.38
2019-06-19T00:52:21.148Z,18.38
2019-06-19T00:53:21.322Z,18.34
2019-06-19T00:54:21.126Z,18.32
2019-06-19T00:55:21.097Z,18.37
2019-06-19T00:56:21.522Z,18.38
2019-06-19T00:57:20.511Z,18.30
2019-06-19T00:58:21.815Z,18.29
2019-06-19T00:59:21.353Z,18.34
2019-06-19T01:00:21.517Z,18.34
2019-06-19T01:01:21.893Z,18.35
2019-06-19T01:02:21.342Z,18.35
2019-06-19T01:03:21.683Z,18.29
2019-06-19T01:04:21.512Z,18.20
2019-06-19T01:05:21.141Z,18.22
2019-06-19T01:06:21.557Z,18.19
2019-06-19T01:07:21.003Z,18.20
2019-06-19T01:08:21.255Z,18.14
2019-06-19T01:09:21.081Z,18.14
2019-06-19T01:10:20.963Z,18.11
2019-06-19T01:11:20.958Z,18.14
2019-06-19T01:12:20.923Z,18.08
2019-06-19T01:13:21.393Z,17.97
2019-06-19T01:14:21.043Z,17.98
2019-06-19T01:15:21.416Z,18.00
2019-06-19T01:16:20.730Z,17.89
2019-06-19T01:17:20.928Z,17.87
2019-06-19T01:18:20.899Z,17.82
2019-06-19T01:19:20.951Z,17.77
2019-06-19T01:20:20.998Z,17.70
2019-06-19T01:21:20.169Z,17.82
2019-06-19T01:22:20.695Z,17.83
2019-06-19T01:23:18.674Z,17.83
2019-06-19T01:24:20.767Z,17.82
2019-06-19T01:25:18.641Z,17.79
2019-06-19T01:26:20.845Z,17.72
2019-06-19T01:27:20.551Z,17.75
2019-06-19T01:28:18.597Z,17.85
2019-06-19T01:29:18.583Z,17.72
2019-06-19T01:30:20.961Z,17.77
2019-06-19T01:31:18.559Z,17.74
2019-06-19T01:32:18.543Z,17.70
2019-06-19T01:33:20.643Z,17.71
2019-06-19T01:34:18.513Z,17.77
2019-06-19T01:35:20.566Z,17.72
2019-06-19T01:36:21.026Z,17.64
2019-06-19T01:37:21.285Z,17.65
2019-06-19T01:38:18.450Z,17.64
2019-06-19T01:39:20.978Z,17.68
2019-06-19T01:40:20.827Z,17.74
2019-06-19T01:41:21.054Z,17.72
2019-06-19T01:42:18.387Z,17.79
2019-06-19T01:43:21.276Z,17.75
2019-06-19T01:44:20.616Z,17.74
2019-06-19T01:45:18.342Z,17.70
2019-06-19T01:46:20.901Z,17.72
2019-06-19T01:47:18.329Z,17.70
2019-06-19T01:48:20.730Z,17.65
2019-06-19T01:49:18.298Z,17.68
2019-06-19T01:50:18.269Z,17.59
2019-06-19T01:51:20.592Z,17.63
2019-06-19T01:52:18.240Z,17.64
2019-06-19T01:53:18.228Z,17.59
2019-06-19T01:54:18.225Z,17.56
2019-06-19T01:55:20.404Z,17.56
2019-06-19T01:56:18.177Z,17.55
2019-06-19T01:57:18.166Z,17.52
2019-06-19T01:58:21.654Z,17.48
2019-06-19T01:59:18.134Z,17.45
2019-06-19T02:00:32.135Z,17.55
2019-06-19T02:01:18.105Z,17.42
2019-06-19T02:02:20.492Z,17.36
2019-06-19T02:03:18.074Z,17.41
2019-06-19T02:04:20.661Z,17.44
2019-06-19T02:05:18.047Z,17.37
2019-06-19T02:06:18.033Z,17.46
2019-06-19T02:07:18.014Z,17.41
2019-06-19T02:08:18.000Z,17.37
2019-06-19T02:09:18.014Z,17.31
2019-06-19T02:10:17.971Z,17.42
2019-06-19T02:11:17.958Z,17.42
2019-06-19T02:12:17.942Z,17.34
2019-06-19T02:13:17.926Z,17.36
2019-06-19T02:14:17.908Z,17.30
2019-06-19T02:15:17.895Z,17.37
2019-06-19T02:16:20.641Z,17.34
2019-06-19T02:17:17.865Z,17.36
2019-06-19T02:18:17.853Z,17.41
2019-06-19T02:19:20.135Z,17.34
2019-06-19T02:20:17.817Z,17.44
2019-06-19T02:21:17.805Z,17.39
2019-06-19T02:22:17.791Z,17.41
2019-06-19T02:23:20.388Z,17.37
2019-06-19T02:24:17.757Z,17.33
2019-06-19T02:25:17.743Z,17.37
2019-06-19T02:26:17.727Z,17.24
2019-06-19T02:27:17.715Z,17.26
2019-06-19T02:28:17.696Z,17.23
2019-06-19T02:29:17.682Z,17.16
2019-06-19T02:30:21.582Z,17.19
2019-06-19T02:31:17.661Z,17.12
2019-06-19T02:32:21.011Z,17.23
2019-06-19T02:33:21.840Z,17.16
2019-06-19T02:34:21.470Z,17.34
2019-06-19T02:35:17.593Z,17.31
2019-06-19T02:36:17.575Z,17.27
2019-06-19T02:37:17.565Z,17.29
2019-06-19T02:38:17.550Z,17.26
2019-06-19T02:39:17.532Z,17.29
2019-06-19T02:40:17.517Z,17.16
2019-06-19T02:41:17.506Z,17.15
2019-06-19T02:42:17.487Z,17.19
2019-06-19T02:43:17.470Z,17.24
2019-06-19T02:44:17.454Z,17.30
2019-06-19T02:45:17.441Z,17.33
2019-06-19T02:46:17.426Z,17.34
2019-06-19T02:47:17.412Z,17.33
2019-06-19T02:48:17.394Z,17.34
2019-06-19T02:49:17.380Z,17.42
2019-06-19T02:50:17.366Z,17.39
2019-06-19T02:51:17.350Z,17.49
2019-06-19T02:52:17.337Z,17.52
2019-06-19T02:53:17.322Z,17.52
2019-06-19T02:54:17.307Z,17.42
2019-06-19T02:55:17.290Z,17.45
2019-06-19T02:56:17.274Z,17.36
2019-06-19T02:57:17.259Z,17.42
2019-06-19T02:58:17.244Z,17.44
2019-06-19T02:59:17.232Z,17.42
2019-06-19T03:00:17.215Z,17.45
2019-06-19T03:01:17.203Z,17.39
2019-06-19T03:02:17.184Z,17.41
2019-06-19T03:03:17.169Z,17.44
2019-06-19T03:04:17.156Z,17.33
2019-06-19T03:05:17.140Z,17.36
2019-06-19T03:06:17.128Z,17.36
2019-06-19T03:07:17.109Z,17.33
2019-06-19T03:08:17.093Z,17.31
2019-06-19T03:09:17.080Z,17.24
2019-06-19T03:10:17.064Z,17.31
2019-06-19T03:11:17.049Z,17.29
2019-06-19T03:12:17.032Z,17.19
2019-06-19T03:13:17.022Z,17.21
2019-06-19T03:14:17.003Z,17.30
2019-06-19T03:15:16.989Z,17.21
2019-06-19T03:16:16.973Z,17.18
2019-06-19T03:17:16.957Z,17.14
2019-06-19T03:18:16.946Z,17.16
2019-06-19T03:19:16.931Z,17.11
2019-06-19T03:20:16.912Z,16.98
2019-06-19T03:21:16.897Z,17.00
2019-06-19T03:22:16.883Z,17.08
2019-06-19T03:23:16.868Z,17.04
2019-06-19T03:24:17.431Z,17.05
2019-06-19T03:25:16.841Z,17.08
2019-06-19T03:26:16.826Z,17.09
2019-06-19T03:27:16.807Z,17.01
2019-06-19T03:28:16.792Z,17.11
2019-06-19T03:29:16.781Z,17.11
2019-06-19T03:30:16.767Z,17.08
2019-06-19T03:31:34.088Z,17.14
2019-06-19T03:32:16.732Z,17.15
2019-06-19T03:33:16.725Z,17.15
2019-06-19T03:34:16.716Z,17.14
2019-06-19T03:35:16.690Z,17.15
2019-06-19T03:36:16.677Z,17.08
2019-06-19T03:37:16.659Z,17.08
2019-06-19T03:38:16.644Z,17.08
2019-06-19T03:39:16.636Z,17.00
2019-06-19T03:40:16.612Z,16.90
2019-06-19T03:41:16.599Z,16.91
2019-06-19T03:42:16.585Z,17.00
2019-06-19T03:43:16.565Z,17.01
2019-06-19T03:44:16.551Z,16.90
2019-06-19T03:45:16.537Z,16.91
2019-06-19T03:46:16.519Z,16.93
2019-06-19T03:47:16.514Z,16.83
2019-06-19T03:48:16.489Z,17.00
2019-06-19T03:49:16.476Z,16.96
2019-06-19T03:50:16.460Z,17.01
2019-06-19T03:51:16.445Z,17.00
2019-06-19T03:52:16.429Z,16.91
2019-06-19T03:53:16.412Z,16.97
2019-06-19T03:54:16.397Z,17.04
2019-06-19T03:55:16.382Z,17.14
2019-06-19T03:56:16.368Z,17.08
2019-06-19T03:57:16.352Z,17.12
2019-06-19T03:58:16.338Z,17.21
2019-06-19T03:59:16.332Z,17.29
2019-06-19T04:00:16.308Z,17.34
2019-06-19T04:01:16.292Z,17.27
2019-06-19T04:02:16.276Z,17.37
2019-06-19T04:03:16.264Z,17.37
2019-06-19T04:04:16.273Z,17.37
2019-06-19T04:05:16.235Z,17.49
2019-06-19T04:06:16.216Z,17.51
2019-06-19T04:07:16.960Z,17.60
2019-06-19T04:08:16.191Z,17.59
2019-06-19T04:09:16.173Z,17.59
2019-06-19T04:10:16.157Z,17.74
2019-06-19T04:11:16.142Z,17.79
2019-06-19T04:12:16.127Z,17.79
2019-06-19T04:13:16.113Z,17.82
2019-06-19T04:14:16.106Z,17.85
2019-06-19T04:15:16.087Z,17.98
2019-06-19T04:16:16.066Z,18.01
2019-06-19T04:17:16.054Z,18.08
2019-06-19T04:18:16.037Z,18.11
2019-06-19T04:19:16.025Z,18.14
2019-06-19T04:20:16.011Z,18.22
2019-06-19T04:21:15.992Z,18.23
2019-06-19T04:22:15.978Z,18.27
2019-06-19T04:23:15.963Z,18.34
2019-06-19T04:24:15.950Z,18.35
2019-06-19T04:25:15.936Z,18.35
2019-06-19T04:26:15.919Z,18.41
2019-06-19T04:27:15.905Z,18.43
2019-06-19T04:28:15.889Z,18.56
2019-06-19T04:29:15.874Z,18.55
2019-06-19T04:30:15.862Z,18.53
2019-06-19T04:31:15.846Z,18.65
2019-06-19T04:32:15.831Z,18.60
2019-06-19T04:33:15.816Z,18.75
2019-06-19T04:34:15.803Z,18.71
2019-06-19T04:35:15.791Z,18.78
2019-06-19T04:36:15.776Z,18.90
2019-06-19T04:37:15.759Z,18.81
2019-06-19T04:38:15.765Z,18.83
2019-06-19T04:39:15.739Z,18.92
2019-06-19T04:40:15.718Z,18.93
2019-06-19T04:41:15.700Z,19.00
2019-06-19T04:42:15.688Z,18.99
2019-06-19T04:43:15.675Z,19.07
2019-06-19T04:44:15.659Z,19.09
2019-06-19T04:45:15.646Z,19.04
2019-06-19T04:46:15.630Z,19.11
2019-06-19T04:47:15.616Z,19.14
2019-06-19T04:48:15.604Z,19.12
2019-06-19T04:49:15.592Z,19.22
2019-06-19T04:50:15.573Z,19.29
2019-06-19T04:51:15.566Z,19.36
2019-06-19T04:52:15.547Z,19.34
2019-06-19T04:53:15.532Z,19.40
2019-06-19T04:54:15.517Z,19.48
2019-06-19T04:55:15.594Z,19.64
2019-06-19T04:56:15.488Z,19.77
2019-06-19T04:57:15.523Z,19.81
2019-06-19T04:58:15.460Z,19.99
2019-06-19T04:59:15.448Z,20.21
2019-06-19T05:00:15.550Z,20.54
2019-06-19T05:01:15.428Z,21.02
2019-06-19T05:02:21.246Z,21.57
2019-06-19T05:03:15.406Z,21.80
2019-06-19T05:04:15.395Z,21.92
2019-06-19T05:05:15.392Z,22.16
2019-06-19T05:06:15.380Z,22.57
2019-06-19T05:07:15.371Z,22.90
2019-06-19T05:08:15.361Z,23.44
2019-06-19T05:09:15.354Z,23.72
2019-06-19T05:10:15.350Z,24.03
2019-06-19T05:11:15.342Z,24.20
2019-06-19T05:12:15.337Z,24.41
2019-06-19T05:13:15.331Z,24.58
2019-06-19T05:14:15.326Z,24.51
2019-06-19T05:15:15.323Z,24.38
2019-06-19T05:16:15.326Z,24.42
2019-06-19T05:17:15.312Z,24.32
2019-06-19T05:18:15.308Z,24.35
2019-06-19T05:19:15.303Z,24.24
2019-06-19T05:20:15.296Z,24.32
2019-06-19T05:21:15.293Z,24.56
2019-06-19T05:22:15.294Z,24.43
2019-06-19T05:23:15.284Z,24.27
2019-06-19T05:24:15.277Z,24.20
2019-06-19T05:25:15.275Z,24.24
2019-06-19T05:26:15.270Z,24.36
2019-06-19T05:27:15.265Z,24.54
2019-06-19T05:28:15.269Z,24.58
2019-06-19T05:29:15.256Z,24.69
2019-06-19T05:30:15.258Z,25.02
2019-06-19T05:31:15.249Z,25.13
2019-06-19T05:32:15.244Z,25.32
2019-06-19T05:33:15.247Z,25.54
2019-06-19T05:34:16.976Z,25.56
2019-06-19T05:35:15.235Z,25.72
2019-06-19T05:36:15.230Z,25.86
2019-06-19T05:37:15.288Z,25.61
2019-06-19T05:38:15.229Z,25.54
2019-06-19T05:39:15.220Z,25.51
2019-06-19T05:40:15.223Z,25.65
2019-06-19T05:41:15.221Z,26.16
2019-06-19T05:42:15.231Z,26.46
2019-06-19T05:43:15.209Z,26.87
2019-06-19T05:44:15.208Z,27.02
2019-06-19T05:45:15.216Z,27.17
2019-06-19T05:46:15.201Z,27.15
2019-06-19T05:47:15.220Z,27.45
2019-06-19T05:48:15.209Z,27.78
2019-06-19T05:49:15.199Z,28.18
2019-06-19T05:50:15.206Z,28.48
2019-06-19T05:51:15.200Z,28.89
2019-06-19T05:52:15.197Z,29.13
2019-06-19T05:53:15.195Z,29.23
2019-06-19T05:54:15.197Z,29.22
2019-06-19T05:55:15.196Z,29.23
2019-06-19T05:56:15.257Z,29.54
2019-06-19T05:57:15.191Z,29.38
2019-06-19T05:58:15.193Z,29.39
2019-06-19T05:59:15.202Z,29.78
2019-06-19T06:00:15.193Z,30.06
2019-06-19T06:01:15.205Z,30.37
2019-06-19T06:02:15.192Z,30.27
2019-06-19T06:03:15.197Z,30.60
2019-06-19T06:04:15.194Z,30.97
2019-06-19T06:05:15.192Z,31.27
2019-06-19T06:06:15.199Z,31.52
2019-06-19T06:07:15.200Z,31.96
2019-06-19T06:08:15.198Z,32.11
2019-06-19T06:09:15.199Z,32.15
2019-06-19T06:10:15.203Z,32.44
2019-06-19T06:11:15.204Z,32.27
2019-06-19T06:12:15.203Z,32.18
2019-06-19T06:13:15.204Z,32.06
2019-06-19T06:14:15.203Z,32.05
2019-06-19T06:15:15.206Z,32.00
2019-06-19T06:16:15.212Z,31.80
2019-06-19T06:17:15.214Z,31.54
2019-06-19T06:18:15.225Z,31.30
2019-06-19T06:19:15.221Z,30.64
2019-06-19T06:20:15.213Z,30.72
2019-06-19T06:21:15.218Z,31.03
2019-06-19T06:22:15.227Z,30.84
2019-06-19T06:23:15.228Z,30.50
2019-06-19T06:24:15.222Z,30.26
2019-06-19T06:25:15.224Z,30.37
2019-06-19T06:26:15.240Z,30.51
2019-06-19T06:27:15.232Z,30.66
2019-06-19T06:28:15.235Z,30.57
2019-06-19T06:29:15.232Z,30.68
2019-06-19T06:30:15.229Z,30.81
2019-06-19T06:31:15.263Z,31.15
2019-06-19T06:32:15.242Z,31.45
2019-06-19T06:33:15.237Z,31.37
2019-06-19T06:34:15.238Z,31.32
2019-06-19T06:35:15.235Z,31.34
2019-06-19T06:36:15.246Z,31.30
2019-06-19T06:37:15.239Z,31.50
2019-06-19T06:38:15.239Z,31.55
2019-06-19T06:39:15.246Z,31.39
2019-06-19T06:40:15.244Z,31.69
2019-06-19T06:41:15.243Z,32.00
2019-06-19T06:42:15.249Z,32.02
2019-06-19T06:43:15.247Z,32.12
2019-06-19T06:44:15.249Z,32.27
2019-06-19T06:45:15.262Z,32.36
2019-06-19T06:46:15.257Z,32.06
2019-06-19T06:47:15.266Z,32.00
2019-06-19T06:48:15.255Z,31.97
2019-06-19T06:49:15.259Z,31.71
2019-06-19T06:50:15.259Z,31.90
2019-06-19T06:51:15.263Z,32.03
2019-06-19T06:52:15.261Z,32.05
2019-06-19T06:53:15.265Z,32.29
2019-06-19T06:54:15.264Z,32.34
2019-06-19T06:55:18.157Z,32.47
2019-06-19T06:56:15.271Z,32.18
2019-06-19T06:57:15.278Z,32.39
2019-06-19T06:58:15.274Z,32.51
2019-06-19T06:59:15.273Z,32.51
2019-06-19T07:00:15.274Z,32.17
2019-06-19T07:01:15.298Z,32.17
2019-06-19T07:02:15.294Z,32.22
2019-06-19T07:03:24.396Z,32.22
2019-06-19T07:04:15.285Z,32.02
2019-06-19T07:05:15.287Z,31.99
2019-06-19T07:06:15.283Z,32.14
2019-06-19T07:07:15.290Z,32.30
2019-06-19T07:08:15.290Z,32.48
2019-06-19T07:09:15.311Z,32.40
2019-06-19T07:10:15.297Z,32.14
2019-06-19T07:11:15.305Z,31.79
2019-06-19T07:12:15.291Z,31.46
2019-06-19T07:13:15.296Z,31.36
2019-06-19T07:14:15.296Z,31.13
2019-06-19T07:15:15.293Z,30.86
2019-06-19T07:16:15.291Z,30.46
2019-06-19T07:17:15.291Z,30.15
2019-06-19T07:18:15.290Z,29.89
2019-06-19T07:19:15.284Z,29.90
2019-06-19T07:20:15.294Z,29.62
2019-06-19T07:21:15.278Z,29.39
2019-06-19T07:22:15.275Z,29.32
2019-06-19T07:23:15.271Z,29.25
2019-06-19T07:24:15.269Z,29.26
2019-06-19T07:25:15.264Z,29.15
2019-06-19T07:26:15.261Z,29.10
2019-06-19T07:27:15.256Z,29.23
2019-06-19T07:28:15.383Z,29.94
2019-06-19T07:29:15.326Z,30.43
2019-06-19T07:30:15.248Z,30.90
2019-06-19T07:31:15.247Z,31.21
2019-06-19T07:32:15.250Z,31.73
2019-06-19T07:33:15.242Z,32.18
2019-06-19T07:34:15.242Z,32.66
2019-06-19T07:35:15.243Z,33.07
2019-06-19T07:36:15.241Z,33.38
2019-06-19T07:37:15.244Z,33.27
2019-06-19T07:38:15.243Z,33.45
2019-06-19T07:39:15.241Z,33.77
2019-06-19T07:40:15.242Z,34.11
2019-06-19T07:41:15.243Z,34.32
2019-06-19T07:42:15.243Z,34.29
2019-06-19T07:43:15.250Z,34.51
2019-06-19T07:44:15.244Z,34.80
2019-06-19T07:45:15.248Z,35.26
2019-06-19T07:46:15.246Z,34.84
2019-06-19T07:47:15.252Z,34.74
2019-06-19T07:48:15.256Z,34.46
2019-06-19T07:49:15.489Z,34.45
2019-06-19T07:50:15.253Z,34.64
2019-06-19T07:51:15.259Z,34.86
2019-06-19T07:52:15.253Z,35.08
2019-06-19T07:53:15.255Z,35.30
2019-06-19T07:54:15.274Z,35.20
2019-06-19T07:55:15.255Z,34.86
2019-06-19T07:56:15.259Z,35.37
2019-06-19T07:57:15.260Z,35.55
2019-06-19T07:58:15.259Z,35.89
2019-06-19T07:59:15.272Z,35.96
2019-06-19T08:00:15.275Z,35.44
2019-06-19T08:01:15.264Z,34.91
2019-06-19T08:02:15.353Z,34.46
2019-06-19T08:03:15.273Z,34.19
2019-06-19T08:04:15.263Z,34.14
2019-06-19T08:05:15.267Z,33.87
2019-06-19T08:06:15.261Z,33.50
2019-06-19T08:07:15.255Z,33.42
2019-06-19T08:08:15.257Z,33.17
2019-06-19T08:09:15.253Z,32.89
2019-06-19T08:10:15.251Z,32.62
2019-06-19T08:11:15.253Z,32.63
2019-06-19T08:12:15.251Z,32.56
2019-06-19T08:13:15.245Z,32.44
2019-06-19T08:14:15.265Z,32.40
2019-06-19T08:15:15.236Z,32.48
2019-06-19T08:16:15.232Z,32.44
2019-06-19T08:17:15.273Z,32.96
2019-06-19T08:18:15.227Z,33.43
2019-06-19T08:19:15.228Z,33.14
2019-06-19T08:20:15.222Z,32.92
2019-06-19T08:21:15.221Z,32.62
2019-06-19T08:22:15.221Z,32.37
2019-06-19T08:23:15.213Z,32.10
2019-06-19T08:24:15.211Z,32.00
2019-06-19T08:25:15.208Z,31.93
2019-06-19T08:26:15.203Z,32.06
2019-06-19T08:27:15.207Z,32.66
2019-06-19T08:28:15.220Z,33.34
2019-06-19T08:29:15.203Z,33.86
2019-06-19T08:30:15.207Z,34.16
2019-06-19T08:31:15.192Z,34.56
2019-06-19T08:32:15.188Z,34.95
2019-06-19T08:33:15.187Z,34.95
2019-06-19T08:34:15.285Z,35.20
2019-06-19T08:35:15.186Z,35.29
2019-06-19T08:36:15.191Z,35.40
2019-06-19T08:37:15.192Z,35.79
2019-06-19T08:38:15.189Z,36.11
2019-06-19T08:39:15.242Z,36.50
2019-06-19T08:40:15.183Z,36.87
2019-06-19T08:41:15.181Z,37.12
2019-06-19T08:42:15.219Z,37.13
2019-06-19T08:43:15.190Z,37.46
2019-06-19T08:44:15.186Z,37.47
2019-06-19T08:45:15.190Z,37.50
2019-06-19T08:46:15.187Z,37.56
2019-06-19T08:47:15.187Z,37.24
2019-06-19T08:48:15.192Z,36.95
2019-06-19T08:49:15.195Z,36.95
2019-06-19T08:50:18.231Z,36.86
2019-06-19T08:51:15.192Z,36.86
2019-06-19T08:52:15.212Z,36.95
2019-06-19T08:53:15.209Z,37.23
2019-06-19T08:54:15.198Z,37.17
2019-06-19T08:55:15.201Z,37.24
2019-06-19T08:56:15.215Z,37.12
2019-06-19T08:57:15.202Z,37.01
2019-06-19T08:58:15.201Z,36.73
2019-06-19T08:59:15.205Z,36.89
2019-06-19T09:00:15.209Z,36.92
2019-06-19T09:01:15.206Z,36.86
2019-06-19T09:02:15.255Z,36.65
2019-06-19T09:03:15.212Z,36.63
2019-06-19T09:04:24.545Z,36.91
2019-06-19T09:05:15.213Z,36.91
2019-06-19T09:06:15.215Z,36.86
2019-06-19T09:07:15.211Z,36.85
2019-06-19T09:08:15.229Z,36.77
2019-06-19T09:09:15.218Z,36.45
2019-06-19T09:10:15.216Z,36.54
2019-06-19T09:11:15.216Z,36.31
2019-06-19T09:12:15.353Z,36.03
2019-06-19T09:13:15.235Z,35.82
2019-06-19T09:14:15.220Z,35.67
2019-06-19T09:15:15.249Z,35.88
2019-06-19T09:16:15.219Z,35.91
2019-06-19T09:17:15.220Z,35.86
2019-06-19T09:18:15.221Z,35.86
2019-06-19T09:19:15.228Z,36.01
2019-06-19T09:20:15.225Z,35.67
2019-06-19T09:21:15.225Z,35.66
2019-06-19T09:22:15.225Z,35.79
2019-06-19T09:23:15.235Z,35.63
2019-06-19T09:24:15.227Z,35.63
2019-06-19T09:25:15.653Z,35.48
2019-06-19T09:26:15.327Z,35.47
2019-06-19T09:27:15.228Z,35.55
2019-06-19T09:28:15.239Z,35.29
2019-06-19T09:29:15.231Z,35.18
2019-06-19T09:30:15.228Z,34.96
2019-06-19T09:31:15.577Z,35.35
2019-06-19T09:32:15.231Z,35.59
2019-06-19T09:33:18.474Z,35.40
2019-06-19T09:34:15.231Z,35.71
2019-06-19T09:35:15.230Z,35.92
2019-06-19T09:36:15.229Z,35.81
2019-06-19T09:37:15.231Z,36.04
2019-06-19T09:38:15.230Z,35.58
2019-06-19T09:39:15.235Z,35.44
2019-06-19T09:40:15.276Z,35.59
2019-06-19T09:41:15.230Z,35.64
2019-06-19T09:42:15.233Z,35.79
2019-06-19T09:43:15.235Z,35.67
2019-06-19T09:44:15.233Z,35.48
2019-06-19T09:45:15.240Z,35.73
2019-06-19T09:46:15.233Z,36.00
2019-06-19T09:47:15.234Z,36.19
2019-06-19T09:48:15.238Z,36.42
2019-06-19T09:49:15.236Z,36.73
2019-06-19T09:50:15.237Z,36.71
2019-06-19T09:51:15.235Z,36.65
2019-06-19T09:52:15.243Z,36.70
2019-06-19T09:53:15.246Z,36.85
2019-06-19T09:54:15.237Z,37.21
2019-06-19T09:55:15.240Z,37.38
2019-06-19T09:56:15.240Z,37.10
2019-06-19T09:57:15.239Z,37.17
2019-06-19T09:58:15.271Z,37.28
2019-06-19T09:59:15.243Z,37.56
2019-06-19T10:00:15.245Z,37.14
2019-06-19T10:01:15.248Z,37.16
2019-06-19T10:02:15.245Z,36.99
2019-06-19T10:03:15.248Z,36.97
2019-06-19T10:04:15.245Z,36.19
2019-06-19T10:05:15.414Z,35.79
2019-06-19T10:06:15.947Z,35.37
2019-06-19T10:07:15.287Z,35.17
2019-06-19T10:08:15.251Z,35.05
2019-06-19T10:09:15.243Z,34.86
2019-06-19T10:10:15.250Z,34.60
2019-06-19T10:11:15.242Z,34.57
2019-06-19T10:12:17.884Z,34.71
2019-06-19T10:13:15.240Z,35.08
2019-06-19T10:14:15.238Z,34.64
2019-06-19T10:15:15.246Z,34.50
2019-06-19T10:16:15.251Z,34.36
2019-06-19T10:17:15.234Z,34.13
2019-06-19T10:18:15.235Z,34.50
2019-06-19T10:19:15.231Z,34.48
2019-06-19T10:20:15.237Z,34.09
2019-06-19T10:21:15.244Z,33.83
2019-06-19T10:22:15.225Z,33.95
2019-06-19T10:23:15.226Z,33.76
2019-06-19T10:24:15.223Z,33.61
2019-06-19T10:25:15.234Z,33.26
2019-06-19T10:26:15.231Z,33.34
2019-06-19T10:27:15.221Z,33.28
2019-06-19T10:28:15.218Z,33.22
2019-06-19T10:29:15.215Z,32.63
2019-06-19T10:30:15.219Z,32.86
2019-06-19T10:31:15.218Z,33.22
2019-06-19T10:32:15.216Z,33.33
2019-06-19T10:33:15.207Z,33.45
2019-06-19T10:34:15.215Z,33.53
2019-06-19T10:35:23.954Z,33.56
2019-06-19T10:36:15.221Z,34.02
2019-06-19T10:37:15.211Z,33.97
2019-06-19T10:38:15.202Z,33.55
2019-06-19T10:39:15.220Z,33.90
2019-06-19T10:40:15.216Z,33.65
2019-06-19T10:41:15.219Z,33.71
2019-06-19T10:42:15.195Z,33.53
2019-06-19T10:43:15.195Z,33.52
2019-06-19T10:44:15.221Z,33.50
2019-06-19T10:45:15.196Z,33.38
2019-06-19T10:46:15.195Z,33.28
2019-06-19T10:47:15.188Z,33.26
2019-06-19T10:48:15.187Z,32.89
2019-06-19T10:49:15.202Z,33.10
2019-06-19T10:50:15.202Z,33.03
2019-06-19T10:51:15.181Z,33.03
2019-06-19T10:52:15.254Z,32.95
2019-06-19T10:53:15.175Z,32.73
2019-06-19T10:54:15.185Z,32.59
2019-06-19T10:55:15.270Z,32.37
2019-06-19T10:56:15.167Z,32.48
2019-06-19T10:57:15.164Z,32.66
2019-06-19T10:58:15.158Z,32.56
2019-06-19T10:59:15.162Z,32.58
2019-06-19T11:00:15.151Z,32.32
2019-06-19T11:01:15.147Z,32.39
2019-06-19T11:02:15.157Z,32.41
2019-06-19T11:03:15.224Z,32.34
2019-06-19T11:04:15.145Z,32.41
2019-06-19T11:05:15.139Z,32.59
2019-06-19T11:06:15.131Z,32.88
2019-06-19T11:07:15.133Z,33.08
2019-06-19T11:08:15.127Z,33.22
2019-06-19T11:09:15.122Z,33.23
2019-06-19T11:10:15.142Z,33.18
2019-06-19T11:11:15.122Z,32.99
2019-06-19T11:12:15.113Z,32.98
2019-06-19T11:13:15.107Z,32.70
2019-06-19T11:14:15.105Z,32.61
2019-06-19T11:15:15.102Z,32.69
2019-06-19T11:16:15.101Z,32.86
2019-06-19T11:17:15.110Z,32.76
2019-06-19T11:18:15.092Z,32.70
2019-06-19T11:19:15.088Z,32.48
2019-06-19T11:20:15.124Z,32.48
2019-06-19T11:21:15.349Z,32.51
2019-06-19T11:22:15.074Z,32.59
2019-06-19T11:23:15.073Z,32.52
2019-06-19T11:24:15.066Z,32.34
2019-06-19T11:25:15.064Z,32.47
2019-06-19T11:26:15.059Z,32.51
2019-06-19T11:27:15.057Z,32.67
2019-06-19T11:28:15.053Z,32.86
2019-06-19T11:29:15.052Z,32.86
2019-06-19T11:30:15.052Z,32.80
2019-06-19T11:31:15.049Z,33.00
2019-06-19T11:32:15.035Z,33.03
2019-06-19T11:33:15.038Z,32.77
2019-06-19T11:34:15.034Z,32.70
2019-06-19T11:35:15.031Z,32.80
2019-06-19T11:36:15.023Z,32.61
2019-06-19T11:37:15.023Z,32.70
2019-06-19T11:38:15.022Z,32.71
2019-06-19T11:39:15.034Z,32.70
2019-06-19T11:40:15.008Z,32.63
2019-06-19T11:41:15.007Z,32.51
2019-06-19T11:42:15.017Z,32.73
2019-06-19T11:43:14.996Z,32.91
2019-06-19T11:44:15.008Z,33.04
2019-06-19T11:45:14.990Z,33.05
2019-06-19T11:46:16.844Z,33.00
2019-06-19T11:47:15.009Z,32.99
2019-06-19T11:48:14.980Z,33.15
2019-06-19T11:49:14.973Z,33.30
2019-06-19T11:50:15.016Z,33.05
2019-06-19T11:51:14.982Z,33.11
2019-06-19T11:52:15.005Z,33.10
2019-06-19T11:53:14.967Z,33.03
2019-06-19T11:54:14.966Z,32.85
2019-06-19T11:55:14.958Z,32.49
2019-06-19T11:56:14.949Z,32.17
2019-06-19T11:57:14.952Z,32.17
2019-06-19T11:58:14.944Z,32.11
2019-06-19T11:59:14.938Z,31.80
2019-06-19T12:00:14.946Z,31.79
2019-06-19T12:01:14.938Z,31.58
2019-06-19T12:02:14.935Z,31.36
2019-06-19T12:03:26.186Z,31.31
2019-06-19T12:04:14.931Z,31.18
2019-06-19T12:05:14.916Z,31.01
2019-06-19T12:06:14.913Z,31.03
2019-06-19T12:07:14.973Z,31.10
2019-06-19T12:08:14.902Z,30.99
2019-06-19T12:09:14.897Z,30.87
2019-06-19T12:10:14.891Z,30.84
2019-06-19T12:11:15.147Z,30.72
2019-06-19T12:12:14.887Z,30.51
2019-06-19T12:13:14.881Z,30.37
2019-06-19T12:14:18.615Z,30.35
2019-06-19T12:15:14.865Z,30.30
2019-06-19T12:16:14.864Z,30.18
2019-06-19T12:17:14.908Z,30.30
2019-06-19T12:18:14.851Z,30.21
2019-06-19T12:19:14.843Z,30.01
2019-06-19T12:20:14.893Z,30.12
2019-06-19T12:21:14.831Z,30.11
2019-06-19T12:22:14.825Z,29.97
2019-06-19T12:23:14.821Z,30.06
2019-06-19T12:24:14.814Z,30.01
2019-06-19T12:25:14.810Z,30.11
2019-06-19T12:26:14.813Z,30.18
2019-06-19T12:27:14.811Z,30.30
2019-06-19T12:28:14.803Z,30.35
2019-06-19T12:29:14.791Z,30.53
2019-06-19T12:30:14.783Z,30.54
2019-06-19T12:31:14.781Z,30.54
2019-06-19T12:32:14.770Z,30.44
2019-06-19T12:33:14.829Z,30.57
2019-06-19T12:34:14.763Z,30.64
2019-06-19T12:35:14.796Z,30.72
2019-06-19T12:36:29.098Z,30.84
2019-06-19T12:37:14.744Z,30.90
2019-06-19T12:38:14.741Z,31.05
2019-06-19T12:39:14.783Z,31.28
2019-06-19T12:40:14.747Z,31.36
2019-06-19T12:41:14.724Z,31.49
2019-06-19T12:42:14.723Z,31.46
2019-06-19T12:43:14.726Z,31.62
2019-06-19T12:44:14.712Z,31.73
2019-06-19T12:45:14.710Z,31.84
2019-06-19T12:46:14.709Z,31.97
2019-06-19T12:47:14.701Z,31.80
2019-06-19T12:48:14.841Z,31.96
2019-06-19T12:49:14.711Z,31.64
2019-06-19T12:50:14.689Z,31.60
2019-06-19T12:51:14.684Z,31.87
2019-06-19T12:52:14.690Z,31.82